Time;durP1;ratioP1;P1;durP2;ratioP2;P2;SDS_P1;SDS_P2;PMS_P1;PMS_P2;Temp;Humidity;BMP_temperature;BMP_pressure;BME280_temperature;BME280_humidity;BME280_pressure;Samples;Min_cycle;Max_cycle;Signal;HPM_P1;HPM_P2
2021/01/30 00:00:25;;;;;;;;;;;8.00;98.90;;;;;;4359250;33;32149;-74
2021/01/30 00:02:52;;;;;;;;;;;8.00;98.90;;;;;;4359486;33;38601;-74
2021/01/30 00:05:19;;;;;;;;;;;8.00;98.90;;;;;;4359781;33;34378;-74
2021/01/30 00:07:48;;;;;;;;;;;8.00;98.90;;;;;;4360092;33;40295;-74
2021/01/30 00:10:15;;;;;;;;;;;8.00;98.90;;;;;;4358463;33;42772;-74
2021/01/30 00:12:42;;;;;;;;;;;8.00;99.00;;;;;;4360128;33;38831;-74
2021/01/30 00:15:10;;;;;;;;;;;8.00;99.00;;;;;;4359652;33;20017;-75
2021/01/30 00:17:39;;;;;;;;;;;8.00;99.00;;;;;;4360849;32;20013;-74
2021/01/30 00:20:10;;;;;;;;;;;8.00;99.00;;;;;;4360423;32;20060;-74
2021/01/30 00:22:39;;;;;;;;;;;8.00;99.00;;;;;;4361775;32;42156;-74
2021/01/30 00:25:06;;;;;;;;;;;8.00;99.00;;;;;;4349178;32;41164;-74
2021/01/30 00:27:38;;;;;;;;;;;8.00;99.00;;;;;;4361683;32;37698;-74
2021/01/30 00:30:09;;;;;;;;;;;8.00;99.00;;;;;;4361695;32;37165;-74
2021/01/30 00:32:35;;;;;;;;;;;8.00;99.00;;;;;;4362687;32;43034;-74
2021/01/30 00:35:02;;;;;;;;;;;8.00;99.00;;;;;;4361111;32;45342;-74
2021/01/30 00:37:30;;;;;;;;;;;8.00;99.10;;;;;;4362732;32;28309;-74
2021/01/30 00:39:56;;;;;;;;;;;8.00;99.10;;;;;;4361750;32;36293;-74
2021/01/30 00:42:24;;;;;;;;;;;8.00;99.10;;;;;;4361273;32;39640;-74
2021/01/30 00:44:54;;;;;;;;;;;8.00;99.10;;;;;;4362421;32;20016;-74
2021/01/30 00:47:21;;;;;;;;;;;8.00;99.10;;;;;;4361091;32;36720;-74
2021/01/30 00:49:48;;;;;;;;;;;8.00;99.10;;;;;;4361702;32;20005;-74
2021/01/30 00:52:18;;;;;;;;;;;8.00;99.10;;;;;;4363134;32;20005;-74
2021/01/30 00:54:45;;;;;;;;;;;8.00;99.10;;;;;;4362393;32;20027;-74
2021/01/30 00:57:11;;;;;;;;;;;8.00;99.10;;;;;;4363322;32;20016;-74
2021/01/30 00:59:41;;;;;;;;;;;8.00;99.10;;;;;;4362418;32;42093;-74
2021/01/30 01:02:08;;;;;;;;;;;8.00;99.10;;;;;;4362702;32;20008;-74
2021/01/30 01:04:40;;;;;;;;;;;8.00;99.10;;;;;;4360956;32;30334;-74
2021/01/30 01:07:18;;;;;;;;;;;8.00;99.10;;;;;;4362383;32;20017;-74
2021/01/30 01:09:48;;;;;;;;;;;8.00;99.10;;;;;;4360742;32;36894;-74
2021/01/30 01:12:17;;;;;;;;;;;8.00;99.40;;;;;;4362142;32;40590;-74
2021/01/30 01:14:43;;;;;;;;;;;8.00;99.10;;;;;;4361597;32;40202;-74
2021/01/30 01:17:13;;;;;;;;;;;8.00;99.10;;;;;;4362284;32;20008;-74
2021/01/30 01:19:40;;;;;;;;;;;8.00;99.20;;;;;;4362439;32;26528;-74
2021/01/30 01:22:08;;;;;;;;;;;8.00;99.10;;;;;;4361786;32;29944;-74
2021/01/30 01:24:35;;;;;;;;;;;8.00;99.20;;;;;;4361898;32;36236;-74
2021/01/30 01:27:04;;;;;;;;;;;8.00;99.20;;;;;;4349500;32;19997;-74
2021/01/30 01:29:31;;;;;;;;;;;8.00;99.20;;;;;;4361961;32;39481;-74
2021/01/30 01:31:58;;;;;;;;;;;8.00;99.20;;;;;;4360053;32;44492;-74
2021/01/30 01:34:26;;;;;;;;;;;8.00;99.20;;;;;;4362065;32;30983;-74
2021/01/30 01:36:53;;;;;;;;;;;8.00;99.20;;;;;;4361765;32;40133;-74
2021/01/30 01:39:23;;;;;;;;;;;8.00;99.20;;;;;;4361649;32;20016;-74
2021/01/30 01:42:04;;;;;;;;;;;8.00;99.20;;;;;;4362467;32;20022;-74
2021/01/30 01:44:34;;;;;;;;;;;8.00;99.20;;;;;;4362808;32;20031;-74
2021/01/30 01:47:03;;;;;;;;;;;8.00;99.20;;;;;;4362726;32;20005;-74
2021/01/30 01:49:32;;;;;;;;;;;8.00;99.20;;;;;;4362676;32;20361;-74
2021/01/30 01:52:09;;;;;;;;;;;8.00;99.20;;;;;;4362336;32;20021;-74
2021/01/30 01:54:39;;;;;;;;;;;8.00;99.20;;;;;;4362149;32;20083;-74
2021/01/30 01:57:11;;;;;;;;;;;8.00;99.20;;;;;;4362100;32;20009;-74
2021/01/30 01:59:41;;;;;;;;;;;8.00;99.20;;;;;;4361107;32;20452;-74
2021/01/30 02:02:10;;;;;;;;;;;8.00;99.20;;;;;;4361327;32;20076;-74
2021/01/30 02:04:37;;;;;;;;;;;8.00;99.20;;;;;;4362185;32;20365;-74
2021/01/30 02:07:05;;;;;;;;;;;8.00;99.20;;;;;;4361982;32;20018;-74
2021/01/30 02:09:34;;;;;;;;;;;8.00;99.20;;;;;;4361574;32;20019;-74
2021/01/30 02:12:06;;;;;;;;;;;8.00;99.20;;;;;;4360815;32;20001;-74
2021/01/30 02:14:36;;;;;;;;;;;8.00;99.20;;;;;;4361021;32;20001;-74
2021/01/30 02:17:06;;;;;;;;;;;8.00;99.20;;;;;;4362415;32;20087;-74
2021/01/30 02:20:02;;;;;;;;;;;8.00;99.20;;;;;;4360776;32;20056;-74
2021/01/30 02:22:51;;;;;;;;;;;8.00;99.20;;;;;;4347411;32;20064;-74
2021/01/30 02:25:30;;;;;;;;;;;8.00;99.20;;;;;;4361500;32;20013;-74
2021/01/30 02:28:13;;;;;;;;;;;8.00;99.20;;;;;;4360693;32;20013;-74
2021/01/30 02:30:46;;;;;;;;;;;8.00;99.20;;;;;;4360976;32;20017;-74
2021/01/30 02:33:31;;;;;;;;;;;8.00;99.30;;;;;;4361071;32;20005;-75
2021/01/30 02:36:07;;;;;;;;;;;8.00;99.20;;;;;;4362119;32;20009;-74
2021/01/30 02:38:39;;;;;;;;;;;8.00;99.20;;;;;;4360304;32;20051;-74
2021/01/30 02:41:10;;;;;;;;;;;8.00;99.30;;;;;;4362072;32;20004;-74
2021/01/30 02:43:43;;;;;;;;;;;8.00;99.20;;;;;;4361592;32;20342;-74
2021/01/30 02:46:13;;;;;;;;;;;8.00;99.20;;;;;;4362263;32;20439;-74
2021/01/30 02:48:43;;;;;;;;;;;8.00;99.20;;;;;;4361156;32;20001;-74
2021/01/30 02:51:12;;;;;;;;;;;8.00;99.20;;;;;;4361091;32;33192;-74
2021/01/30 02:53:48;;;;;;;;;;;8.00;99.20;;;;;;4360316;32;27767;-74
2021/01/30 02:56:17;;;;;;;;;;;8.00;99.20;;;;;;4359671;32;37884;-74
2021/01/30 02:58:49;;;;;;;;;;;8.00;99.20;;;;;;4360930;32;32422;-74
2021/01/30 03:01:15;;;;;;;;;;;8.00;99.20;;;;;;4360974;32;35485;-74
2021/01/30 03:03:45;;;;;;;;;;;8.00;99.20;;;;;;4360220;32;41641;-74
2021/01/30 03:06:18;;;;;;;;;;;8.00;99.30;;;;;;4360814;32;33379;-74
2021/01/30 03:08:50;;;;;;;;;;;8.00;99.30;;;;;;4360869;32;33281;-74
2021/01/30 03:11:28;;;;;;;;;;;8.00;99.30;;;;;;4359478;32;41858;-74
2021/01/30 03:14:03;;;;;;;;;;;8.00;99.30;;;;;;4359818;32;30781;-74
2021/01/30 03:16:34;;;;;;;;;;;8.00;99.20;;;;;;4360638;32;34595;-74
2021/01/30 03:19:02;;;;;;;;;;;8.00;99.30;;;;;;4360282;32;20011;-74
2021/01/30 03:21:32;;;;;;;;;;;8.00;99.60;;;;;;4360526;32;38392;-74
2021/01/30 03:24:00;;;;;;;;;;;8.00;99.30;;;;;;4361025;32;20650;-74
2021/01/30 03:26:28;;;;;;;;;;;8.00;99.30;;;;;;4359575;32;35914;-74
2021/01/30 03:28:55;;;;;;;;;;;8.00;99.30;;;;;;4360002;32;36538;-74
2021/01/30 03:31:22;;;;;;;;;;;8.00;99.40;;;;;;4360453;32;34177;-74
2021/01/30 03:33:49;;;;;;;;;;;8.00;99.40;;;;;;4359566;33;32523;-74
2021/01/30 03:36:19;;;;;;;;;;;8.00;99.40;;;;;;4358773;33;39580;-74
2021/01/30 03:38:45;;;;;;;;;;;8.00;99.40;;;;;;4360314;33;24153;-74
2021/01/30 03:41:14;;;;;;;;;;;8.00;99.40;;;;;;4360685;33;32577;-74
2021/01/30 03:43:41;;;;;;;;;;;8.00;99.40;;;;;;4360388;33;31055;-74
2021/01/30 03:46:10;;;;;;;;;;;7.90;99.30;;;;;;4361456;33;20001;-74
2021/01/30 03:48:37;;;;;;;;;;;8.00;99.40;;;;;;4359284;33;35549;-74
2021/01/30 03:51:04;;;;;;;;;;;8.00;99.70;;;;;;4358837;33;42011;-74
2021/01/30 03:53:30;;;;;;;;;;;8.00;99.40;;;;;;4359783;32;43241;-74
2021/01/30 03:55:57;;;;;;;;;;;8.00;99.40;;;;;;4349521;32;38112;-74
2021/01/30 03:58:24;;;;;;;;;;;8.00;99.40;;;;;;4361971;32;37478;-74
2021/01/30 04:00:50;;;;;;;;;;;8.00;99.40;;;;;;4361587;32;40298;-74
2021/01/30 04:03:17;;;;;;;;;;;8.00;99.40;;;;;;4362649;32;43360;-74
2021/01/30 04:05:46;;;;;;;;;;;8.00;99.40;;;;;;4363051;32;41260;-74
2021/01/30 04:08:13;;;;;;;;;;;8.00;99.40;;;;;;4361535;32;41199;-74
2021/01/30 04:10:42;;;;;;;;;;;8.00;99.40;;;;;;4362698;32;20011;-74
2021/01/30 04:13:10;;;;;;;;;;;8.00;99.40;;;;;;4363004;32;31201;-74
2021/01/30 04:15:38;;;;;;;;;;;8.00;99.40;;;;;;4362370;32;20058;-74
2021/01/30 04:18:08;;;;;;;;;;;8.00;99.40;;;;;;4362958;32;20119;-74
2021/01/30 04:20:37;;;;;;;;;;;8.00;99.40;;;;;;4363126;32;31686;-74
2021/01/30 04:23:05;;;;;;;;;;;8.00;99.30;;;;;;4362806;32;20049;-74
2021/01/30 04:25:32;;;;;;;;;;;8.00;99.30;;;;;;4362598;32;32239;-74
2021/01/30 04:28:03;;;;;;;;;;;8.00;99.30;;;;;;4364035;32;20016;-74
2021/01/30 04:30:30;;;;;;;;;;;8.00;99.20;;;;;;4362734;32;40691;-74
2021/01/30 04:32:59;;;;;;;;;;;7.90;99.20;;;;;;4362368;32;34442;-74
2021/01/30 04:35:31;;;;;;;;;;;8.00;99.10;;;;;;4363265;32;20009;-74
2021/01/30 04:38:02;;;;;;;;;;;7.90;99.10;;;;;;4362816;32;20035;-74
2021/01/30 04:40:31;;;;;;;;;;;7.90;99.10;;;;;;4362559;32;35522;-74
2021/01/30 04:43:14;;;;;;;;;;;7.90;99.10;;;;;;4363781;32;20005;-74
2021/01/30 04:45:44;;;;;;;;;;;7.90;99.00;;;;;;4363589;32;20019;-74
2021/01/30 04:48:20;;;;;;;;;;;7.80;98.90;;;;;;4363433;32;20060;-74
2021/01/30 04:50:55;;;;;;;;;;;7.80;98.80;;;;;;4363826;32;20082;-74
2021/01/30 04:53:40;;;;;;;;;;;7.70;98.90;;;;;;4363533;32;20019;-75
2021/01/30 04:56:12;;;;;;;;;;;7.70;98.90;;;;;;4363580;32;20543;-75
2021/01/30 04:58:50;;;;;;;;;;;7.70;98.70;;;;;;4363133;32;20361;-74
2021/01/30 05:01:26;;;;;;;;;;;7.70;98.70;;;;;;4363604;32;20072;-74
2021/01/30 05:04:00;;;;;;;;;;;7.60;98.80;;;;;;4363385;32;20023;-75
2021/01/30 05:06:40;;;;;;;;;;;7.60;98.60;;;;;;4361957;32;20009;-74
2021/01/30 05:09:32;;;;;;;;;;;7.60;98.60;;;;;;4362291;32;20135;-74
2021/01/30 05:12:02;;;;;;;;;;;7.50;98.50;;;;;;4362347;32;20046;-75
2021/01/30 05:14:34;;;;;;;;;;;7.50;98.60;;;;;;4361818;32;20500;-74
2021/01/30 05:17:07;;;;;;;;;;;7.40;98.60;;;;;;4362163;32;20001;-74
2021/01/30 05:19:42;;;;;;;;;;;7.40;98.60;;;;;;4363428;32;20075;-74
2021/01/30 05:22:12;;;;;;;;;;;7.40;98.70;;;;;;4363380;32;20408;-74
2021/01/30 05:24:44;;;;;;;;;;;7.30;98.60;;;;;;4349528;32;20020;-75
2021/01/30 05:27:20;;;;;;;;;;;7.30;98.60;;;;;;4361958;32;20012;-74
2021/01/30 05:29:52;;;;;;;;;;;7.30;98.50;;;;;;4362407;32;20084;-74
2021/01/30 05:32:19;;;;;;;;;;;7.30;98.40;;;;;;4362408;32;20020;-74
2021/01/30 05:34:45;;;;;;;;;;;7.20;98.70;;;;;;4362973;32;20018;-74
2021/01/30 05:37:21;;;;;;;;;;;7.20;98.60;;;;;;4361529;32;20056;-75
2021/01/30 05:40:07;;;;;;;;;;;7.20;98.60;;;;;;4362050;32;20057;-74
2021/01/30 05:42:33;;;;;;;;;;;7.10;98.40;;;;;;4361864;32;28730;-74
2021/01/30 05:45:06;;;;;;;;;;;7.10;98.50;;;;;;4362716;32;20057;-74
2021/01/30 05:47:33;;;;;;;;;;;7.10;98.50;;;;;;4362723;32;20349;-74
2021/01/30 05:50:18;;;;;;;;;;;7.00;98.50;;;;;;4362604;32;20016;-74
2021/01/30 05:52:48;;;;;;;;;;;7.00;98.60;;;;;;4361431;32;20087;-74
2021/01/30 05:55:25;;;;;;;;;;;7.00;98.60;;;;;;4362171;32;20395;-74
2021/01/30 05:57:53;;;;;;;;;;;7.00;98.50;;;;;;4361471;32;20000;-74
2021/01/30 06:00:20;;;;;;;;;;;6.90;98.40;;;;;;4349200;32;20394;-74
2021/01/30 06:03:13;;;;;;;;;;;6.90;98.50;;;;;;4361270;32;20021;-74
2021/01/30 06:05:44;;;;;;;;;;;6.90;98.50;;;;;;4361347;32;20001;-74
2021/01/30 06:08:10;;;;;;;;;;;6.90;98.50;;;;;;4361538;32;20060;-74
2021/01/30 06:10:37;;;;;;;;;;;6.80;98.40;;;;;;4360863;32;20106;-74
2021/01/30 06:13:09;;;;;;;;;;;6.80;98.20;;;;;;4361402;32;20088;-74
2021/01/30 06:15:39;;;;;;;;;;;6.80;98.40;;;;;;4362053;32;20431;-74
2021/01/30 06:18:26;;;;;;;;;;;6.80;98.50;;;;;;4361821;32;20023;-74
2021/01/30 06:21:18;;;;;;;;;;;6.70;98.30;;;;;;4361110;32;20005;-74
2021/01/30 06:24:05;;;;;;;;;;;6.70;98.40;;;;;;4361238;32;20011;-74
2021/01/30 06:26:36;;;;;;;;;;;6.70;98.30;;;;;;4361263;32;20374;-74
2021/01/30 06:29:05;;;;;;;;;;;6.70;98.30;;;;;;4362331;32;20056;-74
2021/01/30 06:31:40;;;;;;;;;;;6.60;98.20;;;;;;4362276;32;20015;-74
2021/01/30 06:34:19;;;;;;;;;;;6.60;98.30;;;;;;4362404;32;20088;-74
2021/01/30 06:36:48;;;;;;;;;;;6.60;98.30;;;;;;4361109;32;20043;-74
2021/01/30 06:39:21;;;;;;;;;;;6.60;98.40;;;;;;4360635;32;19997;-74
2021/01/30 06:41:51;;;;;;;;;;;6.60;98.20;;;;;;4361113;32;20138;-73
2021/01/30 06:44:27;;;;;;;;;;;6.50;98.20;;;;;;4360448;32;20075;-74
2021/01/30 06:47:07;;;;;;;;;;;6.50;98.60;;;;;;4362210;32;20061;-74
2021/01/30 06:49:44;;;;;;;;;;;6.50;98.40;;;;;;4361983;32;20064;-74
2021/01/30 06:52:15;;;;;;;;;;;6.50;98.30;;;;;;4360333;32;22490;-74
2021/01/30 06:54:45;;;;;;;;;;;6.50;98.30;;;;;;4360058;32;25904;-74
2021/01/30 06:57:15;;;;;;;;;;;6.40;98.20;;;;;;4360235;32;20012;-74
2021/01/30 06:59:56;;;;;;;;;;;6.40;98.20;;;;;;4347202;32;35449;-74
2021/01/30 07:02:26;;;;;;;;;;;6.40;98.20;;;;;;4359056;32;37281;-74
2021/01/30 07:05:19;;;;;;;;;;;6.40;98.30;;;;;;4360437;32;30356;-74
2021/01/30 07:07:58;;;;;;;;;;;6.40;98.20;;;;;;4347879;32;36893;-74
2021/01/30 07:10:25;;;;;;;;;;;6.30;98.10;;;;;;4359590;32;39284;-74
2021/01/30 07:12:52;;;;;;;;;;;6.30;98.30;;;;;;4360476;32;20053;-74
2021/01/30 07:15:24;;;;;;;;;;;6.30;98.20;;;;;;4361797;32;20019;-74
2021/01/30 07:18:00;;;;;;;;;;;6.30;98.20;;;;;;4360228;32;20076;-74
2021/01/30 07:20:27;;;;;;;;;;;6.20;98.20;;;;;;4360564;32;20060;-74
2021/01/30 07:22:59;;;;;;;;;;;6.30;98.20;;;;;;4360105;32;20022;-74
2021/01/30 07:25:30;;;;;;;;;;;6.30;98.30;;;;;;4361644;32;20375;-74
2021/01/30 07:28:07;;;;;;;;;;;6.20;98.30;;;;;;4361392;32;20064;-74
2021/01/30 07:30:41;;;;;;;;;;;6.20;98.20;;;;;;4360345;32;20024;-74
2021/01/30 07:33:12;;;;;;;;;;;6.20;98.00;;;;;;4360117;32;20007;-74
2021/01/30 07:35:41;;;;;;;;;;;6.20;98.10;;;;;;4361510;32;20005;-74
2021/01/30 07:38:14;;;;;;;;;;;6.20;98.20;;;;;;4361506;33;20049;-74
2021/01/30 07:40:50;;;;;;;;;;;6.20;98.30;;;;;;4360210;33;20040;-74
2021/01/30 07:43:19;;;;;;;;;;;6.10;98.20;;;;;;4360364;33;20012;-74
2021/01/30 07:46:15;;;;;;;;;;;6.10;98.10;;;;;;4359123;33;27025;-74
2021/01/30 07:48:50;;;;;;;;;;;6.10;98.20;;;;;;4359707;32;37725;-74
2021/01/30 07:51:33;;;;;;;;;;;6.10;98.20;;;;;;4348535;33;20394;-74
2021/01/30 07:54:03;;;;;;;;;;;6.10;98.20;;;;;;4360144;33;20406;-74
2021/01/30 07:56:36;;;;;;;;;;;6.10;98.20;;;;;;4360218;33;20043;-74
2021/01/30 07:59:06;;;;;;;;;;;6.10;98.20;;;;;;4360150;33;20343;-73
2021/01/30 08:01:45;;;;;;;;;;;6.10;98.20;;;;;;4360020;33;34290;-74
2021/01/30 08:04:34;;;;;;;;;;;6.10;98.10;;;;;;4360008;33;20001;-74
2021/01/30 08:07:20;;;;;;;;;;;6.10;98.20;;;;;;4360264;32;38474;-74
2021/01/30 08:09:46;;;;;;;;;;;6.10;98.00;;;;;;4346128;33;44602;-74
2021/01/30 08:12:21;;;;;;;;;;;6.00;97.80;;;;;;4359138;33;23610;-74
2021/01/30 08:15:02;;;;;;;;;;;6.00;97.80;;;;;;4360944;33;20343;-74
2021/01/30 08:17:47;;;;;;;;;;;6.00;98.00;;;;;;4360280;33;20017;-74
2021/01/30 08:20:14;;;;;;;;;;;6.00;98.00;;;;;;4360780;33;20393;-74
2021/01/30 08:22:44;;;;;;;;;;;6.00;97.90;;;;;;4360764;33;20004;-74
2021/01/30 08:25:13;;;;;;;;;;;6.00;97.90;;;;;;4359906;33;20047;-74
2021/01/30 08:27:45;;;;;;;;;;;6.00;97.90;;;;;;4347253;33;20044;-74
2021/01/30 08:30:14;;;;;;;;;;;6.00;97.90;;;;;;4359911;33;20374;-74
2021/01/30 08:33:01;;;;;;;;;;;6.00;97.70;;;;;;4360493;33;20013;-74
2021/01/30 08:35:28;;;;;;;;;;;5.90;97.80;;;;;;4359771;33;20495;-74
2021/01/30 08:37:57;;;;;;;;;;;5.90;97.80;;;;;;4360733;33;20009;-74
2021/01/30 08:40:44;;;;;;;;;;;5.90;97.80;;;;;;4347320;33;20028;-74
2021/01/30 08:43:16;;;;;;;;;;;5.90;97.90;;;;;;4363404;32;20020;-74
2021/01/30 08:45:45;;;;;;;;;;;5.90;97.80;;;;;;4363023;32;20000;-74
2021/01/30 08:48:26;;;;;;;;;;;5.90;97.90;;;;;;4361813;32;29515;-74
2021/01/30 08:50:55;;;;;;;;;;;5.80;97.70;;;;;;4363160;32;20009;-74
2021/01/30 08:53:21;;;;;;;;;;;5.80;97.80;;;;;;4361395;32;33807;-74
2021/01/30 08:55:48;;;;;;;;;;;5.80;97.80;;;;;;4362900;32;27996;-74
2021/01/30 08:58:46;;;;;;;;;;;5.80;97.70;;;;;;4363160;32;20454;-74
2021/01/30 09:01:22;;;;;;;;;;;5.70;97.50;;;;;;4353627;32;25689;-74
2021/01/30 09:03:54;;;;;;;;;;;5.70;97.60;;;;;;4362590;32;27146;-73
2021/01/30 09:06:39;;;;;;;;;;;5.70;97.50;;;;;;4362861;32;21853;-74
2021/01/30 09:09:07;;;;;;;;;;;5.70;97.40;;;;;;4362340;32;27122;-74
2021/01/30 09:11:42;;;;;;;;;;;5.60;97.60;;;;;;4362970;32;19996;-74
2021/01/30 09:14:14;;;;;;;;;;;5.60;97.70;;;;;;4363071;32;20074;-74
2021/01/30 09:16:47;;;;;;;;;;;5.60;97.70;;;;;;4349855;32;20003;-74
2021/01/30 09:19:41;;;;;;;;;;;5.60;97.70;;;;;;4362064;32;20401;-74
2021/01/30 09:22:13;;;;;;;;;;;5.60;97.60;;;;;;4350050;32;38678;-74
2021/01/30 09:25:03;;;;;;;;;;;5.60;97.70;;;;;;4362792;32;20024;-74
2021/01/30 09:27:33;;;;;;;;;;;5.60;97.70;;;;;;4362355;32;36872;-74
2021/01/30 09:30:12;;;;;;;;;;;5.60;97.60;;;;;;4362638;32;20009;-75
2021/01/30 09:32:44;;;;;;;;;;;5.50;97.50;;;;;;4362089;32;20072;-74
2021/01/30 09:35:17;;;;;;;;;;;5.50;97.60;;;;;;4362813;32;20045;-74
2021/01/30 09:37:48;;;;;;;;;;;5.50;97.70;;;;;;4362761;32;20064;-75
2021/01/30 09:40:22;;;;;;;;;;;5.50;97.40;;;;;;4349872;32;20011;-75
2021/01/30 09:43:02;;;;;;;;;;;5.50;97.50;;;;;;4362889;32;20086;-74
2021/01/30 09:45:33;;;;;;;;;;;5.50;97.70;;;;;;4360975;32;20076;-75
2021/01/30 09:48:04;;;;;;;;;;;5.50;97.60;;;;;;4361494;32;20394;-75
2021/01/30 09:50:32;;;;;;;;;;;5.50;97.60;;;;;;4362941;32;20017;-75
2021/01/30 09:53:12;;;;;;;;;;;5.50;97.60;;;;;;4361082;32;20056;-74
2021/01/30 09:55:40;;;;;;;;;;;5.50;97.60;;;;;;4361541;32;20094;-74
2021/01/30 09:58:17;;;;;;;;;;;5.50;97.50;;;;;;4361446;32;20056;-74
2021/01/30 10:00:46;;;;;;;;;;;5.40;97.50;;;;;;4362686;32;20020;-74
2021/01/30 10:03:16;;;;;;;;;;;5.50;97.60;;;;;;4362313;32;20016;-74
2021/01/30 10:05:46;;;;;;;;;;;5.40;97.50;;;;;;4361677;32;27958;-74
2021/01/30 10:08:16;;;;;;;;;;;5.40;97.50;;;;;;4359951;32;35638;-74
2021/01/30 10:10:43;;;;;;;;;;;5.40;97.50;;;;;;4361351;32;25135;-73
2021/01/30 10:13:11;;;;;;;;;;;5.40;97.40;;;;;;4359894;32;37664;-74
2021/01/30 10:15:38;;;;;;;;;;;5.40;97.50;;;;;;4359846;32;41546;-74
2021/01/30 10:18:16;;;;;;;;;;;5.40;97.60;;;;;;4361161;32;25090;-74
2021/01/30 10:20:50;;;;;;;;;;;5.40;97.70;;;;;;4361219;32;37538;-74
2021/01/30 10:23:28;;;;;;;;;;;5.40;97.60;;;;;;4361887;32;20046;-74
2021/01/30 10:26:04;;;;;;;;;;;5.40;97.60;;;;;;4360977;32;20015;-74
2021/01/30 10:28:47;;;;;;;;;;;5.40;97.50;;;;;;4362310;32;20057;-74
2021/01/30 10:31:16;;;;;;;;;;;5.40;97.50;;;;;;4349024;32;19997;-74
2021/01/30 10:33:51;;;;;;;;;;;5.40;97.50;;;;;;4361134;32;20016;-74
2021/01/30 10:36:19;;;;;;;;;;;5.40;97.50;;;;;;4360907;32;20005;-74
2021/01/30 10:38:52;;;;;;;;;;;5.40;97.50;;;;;;4362201;32;20009;-74
2021/01/30 10:41:20;;;;;;;;;;;5.40;97.50;;;;;;4362300;32;20139;-74
2021/01/30 10:43:50;;;;;;;;;;;5.40;97.50;;;;;;4348690;32;20428;-74
2021/01/30 10:46:16;;;;;;;;;;;5.40;97.50;;;;;;4360514;32;20017;-74
2021/01/30 10:48:45;;;;;;;;;;;5.40;97.50;;;;;;4360626;32;20030;-74
2021/01/30 10:51:15;;;;;;;;;;;5.40;97.80;;;;;;4360412;32;20011;-74
2021/01/30 10:53:45;;;;;;;;;;;5.40;97.50;;;;;;4360383;32;20110;-74
2021/01/30 10:56:19;;;;;;;;;;;5.30;97.50;;;;;;4360432;32;20028;-74
2021/01/30 10:58:52;;;;;;;;;;;5.40;97.40;;;;;;4360352;32;20433;-74
2021/01/30 11:01:19;;;;;;;;;;;5.30;97.40;;;;;;4361631;32;20075;-74
2021/01/30 11:03:52;;;;;;;;;;;5.30;97.40;;;;;;4360581;32;20402;-74
2021/01/30 11:06:41;;;;;;;;;;;5.30;97.40;;;;;;4360727;32;20076;-74
2021/01/30 11:09:11;;;;;;;;;;;5.30;97.30;;;;;;4360490;32;20060;-74
2021/01/30 11:11:40;;;;;;;;;;;5.30;97.50;;;;;;4360680;32;20051;-74
2021/01/30 11:14:33;;;;;;;;;;;5.30;97.30;;;;;;4360534;32;20023;-74
2021/01/30 11:17:04;;;;;;;;;;;5.30;97.40;;;;;;4360765;32;20060;-74
2021/01/30 11:19:30;;;;;;;;;;;5.30;97.30;;;;;;4359714;32;20021;-74
2021/01/30 11:22:11;;;;;;;;;;;5.30;97.30;;;;;;4360771;32;28529;-74
2021/01/30 11:24:48;;;;;;;;;;;5.30;97.30;;;;;;4361514;32;20021;-74
2021/01/30 11:27:29;;;;;;;;;;;5.30;97.30;;;;;;4360531;32;20087;-74
2021/01/30 11:30:16;;;;;;;;;;;5.30;97.40;;;;;;4360596;32;20032;-74
2021/01/30 11:33:04;;;;;;;;;;;5.30;97.30;;;;;;4361493;32;20013;-74
2021/01/30 11:35:36;;;;;;;;;;;5.30;97.30;;;;;;4361460;32;20001;-74
2021/01/30 11:38:13;;;;;;;;;;;5.30;97.30;;;;;;4360178;33;20053;-74
2021/01/30 11:40:40;;;;;;;;;;;5.30;97.30;;;;;;4361258;33;20484;-74
2021/01/30 11:43:10;;;;;;;;;;;5.30;97.30;;;;;;4360285;33;20001;-74
2021/01/30 11:45:40;;;;;;;;;;;5.30;97.30;;;;;;4359860;33;20422;-74
2021/01/30 11:48:07;;;;;;;;;;;5.30;97.30;;;;;;4347552;33;20012;-74
2021/01/30 11:50:33;;;;;;;;;;;5.30;97.30;;;;;;4360946;33;20006;-74
2021/01/30 11:53:09;;;;;;;;;;;5.20;97.30;;;;;;4360233;33;20352;-74
2021/01/30 11:55:39;;;;;;;;;;;5.20;97.30;;;;;;4361206;32;20064;-74
2021/01/30 11:58:06;;;;;;;;;;;5.20;97.40;;;;;;4360933;33;20004;-74
2021/01/30 12:00:33;;;;;;;;;;;5.20;97.30;;;;;;4360902;33;20455;-74
2021/01/30 12:03:02;;;;;;;;;;;5.20;97.70;;;;;;4347531;33;20029;-74
2021/01/30 12:05:28;;;;;;;;;;;5.20;97.30;;;;;;4360896;32;20443;-74
2021/01/30 12:07:56;;;;;;;;;;;5.30;97.40;;;;;;4361442;33;20356;-74
2021/01/30 12:10:26;;;;;;;;;;;5.30;97.30;;;;;;4360153;33;39628;-74
2021/01/30 12:12:55;;;;;;;;;;;5.20;97.30;;;;;;4359970;33;27481;-74
2021/01/30 12:15:22;;;;;;;;;;;5.20;97.30;;;;;;4359583;32;40512;-73
2021/01/30 12:17:49;;;;;;;;;;;5.20;97.30;;;;;;4362987;32;42261;-74
2021/01/30 12:20:23;;;;;;;;;;;5.20;97.30;;;;;;4362611;32;20020;-74
2021/01/30 12:22:50;;;;;;;;;;;5.20;97.30;;;;;;4361960;32;38856;-74
2021/01/30 12:25:17;;;;;;;;;;;5.20;97.20;;;;;;4362920;32;39699;-74
2021/01/30 12:27:48;;;;;;;;;;;5.20;97.30;;;;;;4361727;32;42084;-74
2021/01/30 12:30:16;;;;;;;;;;;5.30;97.40;;;;;;4362416;32;38087;-74
2021/01/30 12:32:45;;;;;;;;;;;5.20;97.20;;;;;;4361946;32;20011;-74
2021/01/30 12:35:15;;;;;;;;;;;5.20;97.20;;;;;;4361597;32;39803;-74
2021/01/30 12:37:42;;;;;;;;;;;5.20;97.20;;;;;;4362212;32;20001;-74
2021/01/30 12:40:10;;;;;;;;;;;5.20;97.30;;;;;;4362597;32;40991;-74
2021/01/30 12:42:39;;;;;;;;;;;5.20;97.30;;;;;;4362245;32;38316;-74
2021/01/30 12:45:08;;;;;;;;;;;5.20;97.20;;;;;;4363537;32;20418;-74
2021/01/30 12:47:35;;;;;;;;;;;5.20;97.20;;;;;;4362528;32;34738;-74
2021/01/30 12:50:11;;;;;;;;;;;5.20;97.30;;;;;;4361363;32;26707;-74
2021/01/30 12:52:37;;;;;;;;;;;5.20;97.20;;;;;;4361250;32;35512;-74
2021/01/30 12:55:04;;;;;;;;;;;5.20;97.30;;;;;;4349763;32;20019;-74
2021/01/30 12:57:34;;;;;;;;;;;5.20;97.20;;;;;;4362004;32;19996;-74
2021/01/30 13:00:04;;;;;;;;;;;5.20;97.20;;;;;;4362047;32;20342;-74
2021/01/30 13:02:30;;;;;;;;;;;5.20;97.30;;;;;;4349189;32;20090;-74
2021/01/30 13:04:58;;;;;;;;;;;5.20;97.30;;;;;;4362516;32;40106;-74
2021/01/30 13:07:24;;;;;;;;;;;5.20;97.30;;;;;;4360907;32;39982;-74
2021/01/30 13:09:52;;;;;;;;;;;5.10;97.20;;;;;;4361595;32;28488;-74
2021/01/30 13:12:21;;;;;;;;;;;5.20;97.20;;;;;;4362164;32;20061;-74
2021/01/30 13:14:48;;;;;;;;;;;5.20;97.20;;;;;;4348452;32;34452;-74
2021/01/30 13:17:15;;;;;;;;;;;5.10;97.20;;;;;;4362917;32;20012;-74
2021/01/30 13:19:44;;;;;;;;;;;5.20;97.20;;;;;;4361949;32;20055;-74
2021/01/30 13:22:11;;;;;;;;;;;5.20;97.20;;;;;;4362413;32;20106;-74
2021/01/30 13:24:38;;;;;;;;;;;5.10;97.30;;;;;;4361303;32;20015;-74
2021/01/30 13:27:05;;;;;;;;;;;5.10;97.10;;;;;;4360297;32;43415;-74
2021/01/30 13:29:34;;;;;;;;;;;5.20;97.20;;;;;;4362061;32;38059;-74
2021/01/30 13:32:02;;;;;;;;;;;5.10;97.20;;;;;;4348519;32;40741;-74
2021/01/30 13:34:29;;;;;;;;;;;5.10;97.20;;;;;;4360173;32;43201;-74
2021/01/30 13:36:59;;;;;;;;;;;5.10;97.20;;;;;;4361784;32;20013;-74
2021/01/30 13:39:26;;;;;;;;;;;5.20;97.30;;;;;;4361852;32;34700;-74
2021/01/30 13:41:52;;;;;;;;;;;5.10;97.20;;;;;;4362815;32;20023;-74
2021/01/30 13:44:21;;;;;;;;;;;5.10;97.20;;;;;;4362197;32;20013;-74
2021/01/30 13:46:51;;;;;;;;;;;5.10;97.20;;;;;;4360244;32;46516;-74
2021/01/30 13:49:18;;;;;;;;;;;5.10;97.20;;;;;;4361608;32;20386;-74
2021/01/30 13:51:44;;;;;;;;;;;5.20;97.30;;;;;;4360742;32;40600;-74
2021/01/30 13:54:12;;;;;;;;;;;5.10;97.10;;;;;;4362724;32;20032;-74
2021/01/30 13:56:39;;;;;;;;;;;5.10;97.10;;;;;;4361728;32;20058;-74
2021/01/30 13:59:06;;;;;;;;;;;5.10;97.20;;;;;;4362261;32;20009;-74
2021/01/30 14:01:36;;;;;;;;;;;5.10;97.20;;;;;;4362075;32;20065;-74
2021/01/30 14:04:06;;;;;;;;;;;5.10;97.20;;;;;;4361380;32;20004;-74
2021/01/30 14:06:35;;;;;;;;;;;5.10;97.20;;;;;;4360231;32;38534;-74
2021/01/30 14:09:05;;;;;;;;;;;5.10;97.10;;;;;;4360478;32;38738;-74
2021/01/30 14:11:31;;;;;;;;;;;5.10;97.20;;;;;;4361562;32;29466;-74
2021/01/30 14:14:00;;;;;;;;;;;5.10;97.20;;;;;;4362077;32;20032;-74
2021/01/30 14:16:27;;;;;;;;;;;5.10;97.20;;;;;;4361063;32;39866;-74
2021/01/30 14:18:55;;;;;;;;;;;5.10;97.20;;;;;;4360260;32;36944;-74
2021/01/30 14:21:22;;;;;;;;;;;5.10;97.20;;;;;;4360385;32;36871;-74
2021/01/30 14:23:52;;;;;;;;;;;5.10;97.20;;;;;;4348962;32;20008;-74
2021/01/30 14:26:25;;;;;;;;;;;5.10;97.10;;;;;;4361927;32;20058;-74
2021/01/30 14:28:53;;;;;;;;;;;5.10;97.10;;;;;;4360292;32;35179;-74
2021/01/30 14:31:20;;;;;;;;;;;5.10;97.10;;;;;;4361214;32;26544;-74
2021/01/30 14:33:47;;;;;;;;;;;5.10;97.10;;;;;;4361315;32;39416;-74
2021/01/30 14:36:14;;;;;;;;;;;5.10;97.10;;;;;;4361609;32;20019;-74
2021/01/30 14:38:45;;;;;;;;;;;5.10;97.10;;;;;;4359772;32;20143;-74
2021/01/30 14:41:12;;;;;;;;;;;5.10;97.20;;;;;;4348367;32;20029;-74
2021/01/30 14:43:39;;;;;;;;;;;5.10;97.20;;;;;;4359224;32;44034;-74
2021/01/30 14:46:05;;;;;;;;;;;5.10;97.10;;;;;;4361379;32;29234;-74
2021/01/30 14:48:32;;;;;;;;;;;5.10;97.10;;;;;;4360786;32;38002;-74
2021/01/30 14:51:01;;;;;;;;;;;5.10;97.10;;;;;;4359094;32;44284;-74
2021/01/30 14:53:31;;;;;;;;;;;5.10;97.10;;;;;;4360153;32;23723;-74
2021/01/30 14:55:57;;;;;;;;;;;5.10;97.10;;;;;;4360098;32;20008;-74